Terminal Aerodrome Forecast
Issued by NWS Sioux Falls, SD

Home | Current Version | Previous Version | Text Only | Print | Product List | Glossary Off
Versions: 1 2 3 4 5 6 7 8 9 10 11 12 13 14 15 16 17 18 19 20 21 22

893
FTUS43 KFSD 121315 AAA
TAFHON
TAF AMD
KHON 121315Z 1213/1312 35010KT P6SM SCT022 BKN035
      TEMPO 1214/1216 BKN022
     FM121600 35011KT P6SM SCT080
     FM130000 02008KT P6SM SCT200
     FM130200 05006KT P6SM SCT200
     FM130600 11005KT P6SM BKN140=

USA.gov is the U.S. government's official web portal to all federal, state and local government web resources and services.